Time;durP1;ratioP1;P1;durP2;ratioP2;P2;SDS_P1;SDS_P2;PMS_P1;PMS_P2;Temp;Humidity;BMP_temperature;BMP_pressure;BME280_temperature;BME280_humidity;BME280_pressure;Samples;Min_cycle;Max_cycle;Signal;HPM_P1;HPM_P2
2022/01/03 00:02:25;;;;;;;12.98;2.50;;;11.60;99.90;;;;;;5047044;28;20017;-43
2022/01/03 00:04:51;;;;;;;27.10;4.32;;;11.60;99.90;;;;;;5047018;28;20037;-43
2022/01/03 00:07:17;;;;;;;20.55;3.83;;;11.60;99.90;;;;;;5045772;28;20041;-43
2022/01/03 00:09:42;;;;;;;12.73;2.60;;;11.50;99.90;;;;;;5044389;28;20043;-43
2022/01/03 00:12:09;;;;;;;19.83;4.00;;;11.50;99.90;;;;;;5046880;28;20021;-44
2022/01/03 00:14:35;;;;;;;22.63;3.88;;;11.50;99.90;;;;;;5046006;28;20036;-44
2022/01/03 00:17:01;;;;;;;19.00;4.00;;;11.50;99.90;;;;;;5046417;28;20037;-44
2022/01/03 00:19:27;;;;;;;18.98;3.33;;;11.50;99.90;;;;;;5046593;28;20029;-43
2022/01/03 00:21:56;;;;;;;22.27;4.65;;;11.50;99.90;;;;;;5045905;28;20086;-42
2022/01/03 00:24:31;;;;;;;21.20;3.60;;;11.50;99.90;;;;;;5046710;28;20770;-43
2022/01/03 00:27:08;;;;;;;20.85;3.90;;;11.50;99.90;;;;;;5049312;28;20044;-44
2022/01/03 00:29:47;;;;;;;16.85;3.33;;;11.50;99.90;;;;;;5050883;28;20052;-44
2022/01/03 00:32:13;;;;;;;18.15;3.65;;;11.50;99.90;;;;;;5050474;28;20033;-43
2022/01/03 00:34:40;;;;;;;18.23;3.28;;;11.50;99.90;;;;;;5050299;28;20029;-42
2022/01/03 00:37:08;;;;;;;19.20;3.70;;;11.50;99.90;;;;;;5050637;28;20387;-43
2022/01/03 00:39:33;;;;;;;20.00;3.28;;;11.50;99.90;;;;;;5050602;28;20032;-42
2022/01/03 00:41:59;;;;;;;20.13;3.40;;;11.50;99.90;;;;;;5050264;28;20017;-42
2022/01/03 00:44:25;;;;;;;20.15;4.68;;;11.50;99.90;;;;;;5050180;28;20020;-43
2022/01/03 00:46:55;;;;;;;22.48;4.38;;;11.50;99.90;;;;;;5050262;28;20033;-44
2022/01/03 00:49:21;;;;;;;18.20;4.00;;;11.50;99.90;;;;;;5050156;28;20045;-43
2022/01/03 00:51:47;;;;;;;21.35;3.92;;;11.50;99.90;;;;;;5050082;28;20078;-44
2022/01/03 00:54:13;;;;;;;25.98;4.60;;;11.50;99.90;;;;;;5050345;28;20024;-44
2022/01/03 00:56:46;;;;;;;27.75;3.97;;;11.40;99.90;;;;;;5049476;28;20037;-43
2022/01/03 00:59:31;;;;;;;25.33;4.70;;;11.50;99.90;;;;;;5047514;28;20021;-44
2022/01/03 01:02:00;;;;;;;26.50;4.45;;;11.40;99.90;;;;;;5049664;28;20045;-44
2022/01/03 01:04:26;;;;;;;24.98;4.30;;;11.40;99.90;;;;;;5049754;28;20073;-43
2022/01/03 01:06:54;;;;;;;22.58;4.18;;;11.40;99.90;;;;;;5049962;28;20045;-42
2022/01/03 01:09:22;;;;;;;25.20;4.65;;;11.40;99.90;;;;;;5048433;28;20021;-45
2022/01/03 01:11:52;;;;;;;23.13;4.47;;;11.40;99.90;;;;;;5049954;28;20021;-44
2022/01/03 01:14:17;;;;;;;25.02;4.43;;;11.50;99.90;;;;;;5050095;28;20036;-43
2022/01/03 01:16:43;;;;;;;25.60;3.80;;;11.40;99.90;;;;;;5049419;28;20029;-45
2022/01/03 01:19:10;;;;;;;26.45;4.55;;;11.50;99.90;;;;;;5049419;28;20032;-43
2022/01/03 01:21:36;;;;;;;29.25;4.20;;;11.50;99.90;;;;;;5049894;28;20052;-43
2022/01/03 01:24:01;;;;;;;18.30;4.25;;;11.50;99.90;;;;;;5048959;28;20493;-43
2022/01/03 01:29:12;;;;;;;19.67;3.90;;;11.50;99.90;;;;;;5050039;28;20072;-43
2022/01/03 01:31:48;;;;;;;25.02;4.32;;;11.50;99.90;;;;;;5048747;28;20056;-43
2022/01/03 01:34:22;;;;;;;20.73;4.05;;;11.50;99.90;;;;;;5049759;28;20137;-44
2022/01/03 01:36:52;;;;;;;24.05;4.60;;;11.40;99.90;;;;;;5049556;28;20103;-45
2022/01/03 01:39:17;;;;;;;20.83;3.55;;;11.40;99.90;;;;;;5048095;28;20487;-44
2022/01/03 01:41:44;;;;;;;22.75;5.03;;;11.40;99.90;;;;;;5049639;28;20025;-44
2022/01/03 01:44:11;;;;;;;23.88;4.20;;;11.40;99.90;;;;;;5048874;28;20559;-44
2022/01/03 01:46:44;;;;;;;19.45;3.78;;;11.40;99.90;;;;;;5048835;28;20032;-43
2022/01/03 01:49:17;;;;;;;22.48;3.78;;;11.40;99.90;;;;;;5048884;28;20048;-42
2022/01/03 01:51:46;;;;;;;20.73;3.92;;;11.40;99.90;;;;;;5048621;28;20025;-43
2022/01/03 01:54:15;;;;;;;19.73;4.20;;;11.40;99.90;;;;;;5049479;28;20017;-44
2022/01/03 01:57:07;;;;;;;21.52;4.95;;;11.40;99.90;;;;;;5048672;28;20520;-43
2022/01/03 01:59:44;;;;;;;30.45;4.45;;;11.40;99.90;;;;;;5048039;28;20183;-43
2022/01/03 02:02:14;;;;;;;21.92;4.97;;;11.40;99.90;;;;;;5049371;28;20039;-43
2022/01/03 02:04:46;;;;;;;17.67;3.35;;;11.40;99.90;;;;;;5049105;28;20029;-43
2022/01/03 02:07:25;;;;;;;18.52;4.20;;;11.50;99.90;;;;;;5048513;28;20123;-43
2022/01/03 02:10:13;;;;;;;19.88;4.32;;;11.50;99.90;;;;;;5048638;28;20111;-42
2022/01/03 02:12:45;;;;;;;33.05;7.00;;;11.50;99.90;;;;;;5048189;28;20033;-44
2022/01/03 02:15:15;;;;;;;20.90;3.92;;;11.40;99.90;;;;;;5048965;28;20104;-42
2022/01/03 02:17:46;;;;;;;23.25;3.88;;;11.40;99.90;;;;;;5048857;28;20097;-43
2022/01/03 02:20:15;;;;;;;22.08;4.05;;;11.40;99.90;;;;;;5047971;28;20013;-42
2022/01/03 02:22:42;;;;;;;21.20;3.70;;;11.40;99.90;;;;;;5048380;28;20041;-44
2022/01/03 02:25:11;;;;;;;18.33;3.60;;;11.40;99.90;;;;;;5048261;28;20519;-43
2022/01/03 02:27:37;;;;;;;22.98;4.25;;;11.40;99.90;;;;;;5047792;28;20075;-44
2022/01/03 02:30:10;;;;;;;22.77;5.55;;;11.40;99.90;;;;;;5048944;28;20009;-42
2022/01/03 02:32:35;;;;;;;;;;;11.40;99.90;;;;;;5048373;28;20025;-43
2022/01/03 02:35:01;;;;;;;18.13;3.60;;;11.40;99.90;;;;;;5048023;28;19931;-42
2022/01/03 02:37:27;;;;;;;25.13;4.38;;;11.40;99.90;;;;;;5048167;28;20010;-42
2022/01/03 02:39:53;;;;;;;18.15;3.53;;;11.40;99.90;;;;;;5048463;28;20036;-44
2022/01/03 02:42:23;;;;;;;24.23;5.20;;;11.40;99.90;;;;;;5047913;28;20052;-43
2022/01/03 02:44:58;;;;;;;21.75;4.57;;;11.40;99.90;;;;;;5048529;28;20071;-44
2022/01/03 02:47:24;;;;;;;19.85;4.10;;;11.40;99.90;;;;;;5047832;28;20041;-43
2022/01/03 02:49:49;;;;;;;16.92;3.67;;;11.30;99.90;;;;;;5047094;28;20400;-44
2022/01/03 02:52:15;;;;;;;19.70;3.88;;;11.30;99.90;;;;;;5047871;28;20534;-42
2022/01/03 02:54:40;;;;;;;23.63;4.28;;;11.30;99.90;;;;;;5047594;28;20034;-43
2022/01/03 02:57:06;;;;;;;19.85;4.22;;;11.30;99.90;;;;;;5047603;28;20025;-43
2022/01/03 02:59:32;;;;;;;21.27;4.40;;;11.30;99.90;;;;;;5048043;28;20029;-43
2022/01/03 03:01:58;;;;;;;21.08;3.72;;;11.30;99.90;;;;;;5047324;28;20025;-43
2022/01/03 03:04:24;;;;;;;17.15;3.65;;;11.30;99.90;;;;;;5048121;28;20039;-43
2022/01/03 03:06:50;;;;;;;18.13;3.42;;;11.30;99.90;;;;;;5047679;28;20037;-43
2022/01/03 03:09:16;;;;;;;19.20;3.10;;;11.30;99.90;;;;;;5047309;28;20025;-43
2022/01/03 03:11:41;;;;;;;24.17;4.45;;;11.20;99.90;;;;;;5047682;28;20063;-42
2022/01/03 03:14:07;;;;;;;17.70;4.28;;;11.20;99.90;;;;;;5047589;28;20025;-43
2022/01/03 03:16:34;;;;;;;21.85;3.80;;;11.20;99.90;;;;;;5047031;28;20080;-43
2022/01/03 03:19:00;;;;;;;22.85;3.88;;;11.20;99.90;;;;;;5047420;28;20134;-44
2022/01/03 03:21:30;;;;;;;21.33;3.90;;;11.20;99.90;;;;;;5047501;28;20477;-43
2022/01/03 03:23:56;;;;;;;25.75;4.70;;;11.20;99.90;;;;;;5046881;28;20037;-43
2022/01/03 03:26:22;;;;;;;21.73;4.15;;;11.20;99.90;;;;;;5048145;28;20090;-42
2022/01/03 03:28:47;;;;;;;18.02;3.85;;;11.20;99.90;;;;;;5047001;28;20025;-42
2022/01/03 03:31:13;;;;;;;19.95;3.22;;;11.20;99.90;;;;;;5046994;28;20037;-44
2022/01/03 03:33:38;;;;;;;22.58;3.97;;;11.20;99.90;;;;;;5047015;28;20032;-43
2022/01/03 03:36:04;;;;;;;21.40;3.67;;;11.20;99.90;;;;;;5047365;28;20029;-44
2022/01/03 03:38:30;;;;;;;17.95;4.00;;;11.20;99.90;;;;;;5046212;28;20017;-43
2022/01/03 03:40:58;;;;;;;23.27;3.90;;;11.20;99.90;;;;;;5047371;28;20025;-44
2022/01/03 03:43:24;;;;;;;16.05;3.47;;;11.20;99.90;;;;;;5046948;28;20029;-43
2022/01/03 03:45:49;;;;;;;14.13;3.10;;;11.20;99.90;;;;;;5046438;28;20039;-42
2022/01/03 03:48:16;;;;;;;17.65;3.58;;;11.20;99.90;;;;;;5046924;28;20461;-43
2022/01/03 03:50:41;;;;;;;16.15;3.20;;;11.20;99.90;;;;;;5047109;28;20044;-43
2022/01/03 03:53:07;;;;;;;20.33;3.67;;;11.20;99.90;;;;;;5045804;28;20369;-44
2022/01/03 03:55:33;;;;;;;22.30;4.03;;;11.20;99.90;;;;;;5046956;28;20021;-43
2022/01/03 03:58:00;;;;;;;20.55;4.90;;;11.20;99.90;;;;;;5046469;28;20028;-44
2022/01/03 04:00:26;;;;;;;17.52;4.30;;;11.20;99.90;;;;;;5046039;28;20532;-43
2022/01/03 04:02:52;;;;;;;20.52;3.72;;;11.20;99.90;;;;;;5047141;28;20674;-44
2022/01/03 04:05:17;;;;;;;18.65;3.53;;;11.20;99.90;;;;;;5046258;28;20457;-43
2022/01/03 04:07:43;;;;;;;17.45;3.70;;;11.20;99.90;;;;;;5046907;28;20048;-44
2022/01/03 04:10:11;;;;;;;22.30;3.50;;;11.10;99.90;;;;;;5046574;28;20574;-45
2022/01/03 04:12:37;;;;;;;21.95;4.28;;;11.10;99.90;;;;;;5046149;28;20017;-44
2022/01/03 04:15:04;;;;;;;23.10;4.65;;;11.10;99.90;;;;;;5046616;28;20171;-43
2022/01/03 04:17:30;;;;;;;18.55;3.88;;;11.10;99.90;;;;;;5026856;28;20041;-43
2022/01/03 04:19:55;;;;;;;20.17;5.05;;;11.10;99.90;;;;;;5040106;28;20024;-43
2022/01/03 04:22:21;;;;;;;22.25;4.72;;;11.10;99.90;;;;;;5046439;28;20492;-43
2022/01/03 04:24:47;;;;;;;18.52;3.60;;;11.10;99.90;;;;;;5046280;28;20029;-42
2022/01/03 04:27:12;;;;;;;25.42;3.97;;;11.10;99.90;;;;;;5046564;28;20039;-43
2022/01/03 04:29:38;;;;;;;22.63;4.80;;;11.10;99.90;;;;;;5046511;28;20456;-44
2022/01/03 04:32:04;;;;;;;16.92;4.97;;;11.10;99.90;;;;;;5047079;28;20040;-43
2022/01/03 04:34:29;;;;;;;22.25;4.22;;;11.10;99.90;;;;;;5045822;28;20028;-44
2022/01/03 04:36:55;;;;;;;25.48;4.30;;;11.20;99.90;;;;;;5046653;28;20098;-44
2022/01/03 04:39:23;;;;;;;25.48;4.70;;;11.20;99.90;;;;;;5046587;28;20372;-44
2022/01/03 04:41:49;;;;;;;19.20;4.72;;;11.20;99.90;;;;;;5046091;28;20021;-43
2022/01/03 04:44:15;;;;;;;20.75;5.15;;;11.20;99.90;;;;;;5046685;28;20033;-43
2022/01/03 04:46:40;;;;;;;20.75;4.50;;;11.20;99.90;;;;;;5045781;28;20041;-44
2022/01/03 04:49:07;;;;;;;25.08;4.38;;;11.20;99.90;;;;;;5046036;28;20033;-44
2022/01/03 04:51:33;;;;;;;21.42;4.75;;;11.20;99.90;;;;;;5046029;28;20082;-44
2022/01/03 04:53:59;;;;;;;21.67;5.20;;;11.20;99.90;;;;;;5046507;28;20025;-43
2022/01/03 04:56:28;;;;;;;24.98;4.88;;;11.20;99.90;;;;;;5046017;28;20043;-43
2022/01/03 04:58:55;;;;;;;21.35;4.15;;;11.20;99.90;;;;;;5026023;28;20456;-44
2022/01/03 05:01:21;;;;;;;16.63;3.97;;;11.20;99.90;;;;;;5040577;28;20032;-43
2022/01/03 05:03:47;;;;;;;25.50;4.22;;;11.20;99.90;;;;;;5045732;28;20469;-44
2022/01/03 05:06:13;;;;;;;21.67;3.97;;;11.20;99.90;;;;;;5046271;28;20108;-44
2022/01/03 05:08:39;;;;;;;18.27;3.72;;;11.10;99.90;;;;;;5046020;28;20777;-43
2022/01/03 05:11:05;;;;;;;21.52;4.57;;;11.20;99.90;;;;;;5045799;28;20016;-43
2022/01/03 05:13:31;;;;;;;23.38;4.90;;;11.10;99.90;;;;;;5049356;28;20033;-43
2022/01/03 05:15:58;;;;;;;21.58;4.90;;;11.10;99.90;;;;;;5049414;28;20432;-44
2022/01/03 05:18:24;;;;;;;16.25;3.80;;;11.10;99.90;;;;;;5049736;28;20740;-43
2022/01/03 05:20:50;;;;;;;25.70;4.57;;;11.10;99.90;;;;;;5049695;28;20029;-44
2022/01/03 05:23:15;;;;;;;20.20;4.20;;;11.20;99.90;;;;;;5049537;28;20025;-44
2022/01/03 05:25:41;;;;;;;20.52;3.92;;;11.10;99.90;;;;;;5049499;28;20064;-45
2022/01/03 05:28:06;;;;;;;20.70;4.15;;;11.20;99.90;;;;;;5049393;28;20029;-44
2022/01/03 05:30:32;;;;;;;19.80;4.10;;;11.20;99.90;;;;;;5049410;28;20673;-43
2022/01/03 05:32:58;;;;;;;18.90;4.05;;;11.20;99.90;;;;;;5049409;28;20078;-43
2022/01/03 05:35:23;;;;;;;25.65;4.55;;;11.20;99.90;;;;;;5049706;28;20112;-44
2022/01/03 05:37:49;;;;;;;16.08;4.32;;;11.30;99.90;;;;;;5049031;28;20461;-44
2022/01/03 05:40:14;;;;;;;18.92;4.03;;;11.20;99.90;;;;;;5049772;28;20529;-44
2022/01/03 05:42:41;;;;;;;21.17;4.07;;;11.30;99.90;;;;;;5049169;28;20025;-43
2022/01/03 05:45:07;;;;;;;26.85;4.93;;;11.30;99.90;;;;;;5049067;28;20764;-43
2022/01/03 05:47:33;;;;;;;24.08;5.15;;;11.30;99.90;;;;;;5049026;28;20029;-43
2022/01/03 05:49:59;;;;;;;20.02;4.88;;;11.30;99.90;;;;;;5048996;28;20048;-43
2022/01/03 05:52:25;;;;;;;19.05;4.22;;;11.20;99.90;;;;;;5048909;28;20035;-43
2022/01/03 05:54:52;;;;;;;22.20;3.90;;;11.30;99.90;;;;;;5048767;28;20116;-45
2022/01/03 05:57:18;;;;;;;19.42;5.07;;;11.30;99.90;;;;;;5049104;28;20024;-42
2022/01/03 05:59:43;;;;;;;26.50;5.25;;;11.30;99.90;;;;;;5048548;28;20033;-45
2022/01/03 06:02:09;;;;;;;24.00;3.78;;;11.30;99.90;;;;;;5049152;28;20046;-42
2022/01/03 06:04:41;;;;;;;20.10;3.92;;;11.20;99.90;;;;;;5048826;28;20017;-43
2022/01/03 06:07:08;;;;;;;19.20;3.55;;;11.30;99.90;;;;;;5048755;28;20029;-43
2022/01/03 06:09:35;;;;;;;21.48;3.70;;;11.20;99.90;;;;;;5049022;28;20029;-44
2022/01/03 06:12:01;;;;;;;23.23;3.70;;;11.30;99.90;;;;;;5048188;28;20033;-43
2022/01/03 06:14:27;;;;;;;13.63;3.17;;;11.30;99.90;;;;;;5047888;28;20009;-43
2022/01/03 06:16:53;;;;;;;24.50;4.03;;;11.30;99.90;;;;;;5049053;28;20033;-44
2022/01/03 06:19:19;;;;;;;23.02;4.32;;;11.30;99.90;;;;;;5048568;28;20017;-42
2022/01/03 06:21:45;;;;;;;18.05;3.58;;;11.30;99.90;;;;;;5048565;28;20400;-47
2022/01/03 06:24:13;;;;;;;17.40;4.35;;;11.30;99.90;;;;;;5047707;28;20017;-43
2022/01/03 06:26:41;;;;;;;20.20;3.03;;;11.30;99.90;;;;;;5047610;28;20029;-42
2022/01/03 06:29:08;;;;;;;22.38;4.20;;;11.30;99.90;;;;;;5048492;28;20021;-44
2022/01/03 06:31:34;;;;;;;17.95;3.47;;;11.30;99.90;;;;;;5048227;28;20029;-44
2022/01/03 06:34:00;;;;;;;19.63;3.53;;;11.20;99.90;;;;;;5048175;28;20029;-42
2022/01/03 06:36:26;;;;;;;24.35;4.28;;;11.20;99.90;;;;;;5048249;28;20029;-44
2022/01/03 06:38:52;;;;;;;18.63;3.42;;;11.20;99.90;;;;;;5048143;28;20028;-43
2022/01/03 06:41:18;;;;;;;18.45;3.80;;;11.20;99.90;;;;;;5048244;28;20036;-44
2022/01/03 06:43:44;;;;;;;19.70;3.80;;;11.30;99.90;;;;;;5048469;28;20024;-44
2022/01/03 06:46:09;;;;;;;18.10;4.88;;;11.30;99.90;;;;;;5048139;28;20135;-42
2022/01/03 06:48:35;;;;;;;23.23;4.63;;;11.30;99.90;;;;;;5047811;28;20074;-44
2022/01/03 06:51:01;;;;;;;19.02;4.05;;;11.30;99.90;;;;;;5042495;28;20065;-45
2022/01/03 06:53:26;;;;;;;15.18;3.50;;;11.30;99.90;;;;;;5046304;28;20036;-43
2022/01/03 06:55:52;;;;;;;22.75;4.53;;;11.30;99.90;;;;;;5043788;28;20032;-43
2022/01/03 06:58:18;;;;;;;18.55;4.13;;;11.30;99.90;;;;;;5046836;28;20391;-43
2022/01/03 07:00:43;;;;;;;21.20;3.95;;;11.30;99.90;;;;;;5046357;28;20056;-43
2022/01/03 07:03:09;;;;;;;13.88;3.50;;;11.30;99.90;;;;;;5046621;28;20036;-42
2022/01/03 07:05:34;;;;;;;22.25;3.80;;;11.30;99.90;;;;;;5046481;28;20027;-43
2022/01/03 07:08:00;;;;;;;13.40;3.50;;;11.30;99.90;;;;;;5046675;28;20129;-42
2022/01/03 07:10:26;;;;;;;19.40;4.15;;;11.30;99.90;;;;;;5046820;28;20067;-44
2022/01/03 07:12:53;;;;;;;19.48;4.50;;;11.30;99.90;;;;;;5047341;28;20024;-44
2022/01/03 07:20:50;;;;;;;23.08;3.75;;;11.30;99.90;;;;;;5047786;28;20032;-43
2022/01/03 07:23:17;;;;;;;18.88;3.85;;;11.30;99.90;;;;;;5046992;28;20106;-44
2022/01/03 07:25:44;;;;;;;11.90;3.10;;;11.30;99.90;;;;;;5047014;28;20052;-43
2022/01/03 07:28:10;;;;;;;17.92;3.88;;;11.20;99.90;;;;;;5047465;28;20357;-42
2022/01/03 07:30:35;;;;;;;18.75;4.22;;;11.20;99.90;;;;;;5046666;28;20531;-43
2022/01/03 07:33:01;;;;;;;15.05;3.63;;;11.20;99.90;;;;;;5046982;28;20472;-42
2022/01/03 07:35:27;;;;;;;18.05;4.28;;;11.20;99.90;;;;;;5046830;28;20023;-42
2022/01/03 07:37:53;;;;;;;17.80;3.70;;;11.20;99.90;;;;;;5046520;28;20032;-43
2022/01/03 07:40:19;;;;;;;15.88;3.40;;;11.20;99.90;;;;;;5047643;28;20017;-44
2022/01/03 07:42:45;;;;;;;17.05;3.72;;;11.30;99.90;;;;;;5047054;28;20111;-43
2022/01/03 07:45:11;;;;;;;16.45;3.88;;;11.30;99.90;;;;;;5045955;28;20142;-43
2022/01/03 07:47:37;;;;;;;20.20;3.75;;;11.30;99.90;;;;;;5045924;28;20508;-43
2022/01/03 07:50:04;;;;;;;16.00;3.35;;;11.30;99.90;;;;;;5046665;28;20079;-43
2022/01/03 07:52:33;;;;;;;12.82;3.17;;;11.30;99.90;;;;;;5045892;28;20494;-44
2022/01/03 07:54:58;;;;;;;11.23;2.92;;;11.30;99.90;;;;;;5047522;28;20028;-43
2022/01/03 07:57:24;;;;;;;14.95;3.63;;;11.30;99.90;;;;;;5045675;28;20032;-43
2022/01/03 07:59:49;;;;;;;16.98;3.45;;;11.30;99.90;;;;;;5046881;28;20602;-44
2022/01/03 08:02:15;;;;;;;19.40;4.45;;;11.30;99.90;;;;;;5046862;28;20036;-43
2022/01/03 08:04:40;;;;;;;10.77;3.35;;;11.30;99.90;;;;;;5046006;28;20029;-43
2022/01/03 08:07:06;;;;;;;15.00;3.20;;;11.30;99.90;;;;;;5046962;28;20029;-43
2022/01/03 08:09:32;;;;;;;15.18;3.83;;;11.30;99.90;;;;;;5046901;28;20029;-43
2022/01/03 08:11:57;;;;;;;13.05;3.38;;;11.30;99.90;;;;;;5045927;28;20021;-43
2022/01/03 08:14:23;;;;;;;16.92;3.50;;;11.30;99.90;;;;;;5046111;28;20380;-42
2022/01/03 08:16:48;;;;;;;16.73;3.67;;;11.30;99.90;;;;;;5046775;28;20055;-43
2022/01/03 08:19:14;;;;;;;17.00;3.95;;;11.30;99.90;;;;;;5045970;28;20032;-43
2022/01/03 08:21:40;;;;;;;20.70;3.45;;;11.30;99.90;;;;;;5046516;28;20021;-43
2022/01/03 08:24:05;;;;;;;14.75;4.47;;;11.30;99.90;;;;;;5046930;28;20029;-43
2022/01/03 08:26:33;;;;;;;14.32;3.33;;;11.30;99.90;;;;;;5045528;28;20033;-44
2022/01/03 08:28:59;;;;;;;20.73;4.45;;;11.30;99.90;;;;;;5046269;28;20021;-43
2022/01/03 08:31:25;;;;;;;16.73;3.92;;;11.30;99.90;;;;;;5047103;28;20179;-43
2022/01/03 08:33:51;;;;;;;18.73;4.30;;;11.30;99.90;;;;;;5045064;28;20029;-42
2022/01/03 08:36:16;;;;;;;16.30;3.75;;;11.30;99.90;;;;;;5047482;28;20035;-44
2022/01/03 08:38:42;;;;;;;19.25;5.20;;;11.30;99.90;;;;;;5046089;28;20025;-43
2022/01/03 08:41:08;;;;;;;16.15;3.80;;;11.30;99.90;;;;;;5045990;28;20028;-44
2022/01/03 08:43:33;;;;;;;13.68;3.58;;;11.40;99.90;;;;;;5045620;28;20032;-44
2022/01/03 08:45:59;;;;;;;15.60;3.55;;;11.40;99.90;;;;;;5046583;28;20495;-45
2022/01/03 08:48:24;;;;;;;11.80;3.10;;;11.40;99.90;;;;;;5048897;28;20043;-42
2022/01/03 08:50:50;;;;;;;17.63;3.58;;;11.40;99.90;;;;;;5049753;28;20049;-44
2022/01/03 08:53:15;;;;;;;16.10;3.53;;;11.40;99.90;;;;;;5050851;28;20083;-43
2022/01/03 08:55:41;;;;;;;22.55;4.22;;;11.40;99.90;;;;;;5049366;28;20439;-42
2022/01/03 08:58:07;;;;;;;15.15;3.00;;;11.40;99.90;;;;;;5050542;28;20016;-43
2022/01/03 09:00:34;;;;;;;14.50;3.10;;;11.40;99.90;;;;;;5049356;28;20116;-43
2022/01/03 09:03:00;;;;;;;17.52;3.58;;;11.40;99.90;;;;;;5049920;28;20021;-43
2022/01/03 09:05:25;;;;;;;15.73;4.07;;;11.40;99.90;;;;;;5049946;28;20086;-44
2022/01/03 09:07:51;;;;;;;15.15;3.83;;;11.40;99.90;;;;;;5049205;28;20443;-43
2022/01/03 09:10:16;;;;;;;19.98;3.50;;;11.40;99.90;;;;;;5050134;28;20516;-43
2022/01/03 09:12:43;;;;;;;22.67;4.72;;;11.40;99.90;;;;;;5050206;28;20533;-44
2022/01/03 09:15:09;;;;;;;13.32;4.05;;;11.40;99.90;;;;;;5048394;28;20017;-43
2022/01/03 09:17:37;;;;;;;20.38;4.18;;;11.40;99.90;;;;;;5047877;28;20036;-44
2022/01/03 09:20:04;;;;;;;18.02;3.60;;;11.40;99.90;;;;;;5050058;28;20112;-44
2022/01/03 09:22:35;;;;;;;17.10;3.70;;;11.40;99.90;;;;;;5049166;28;20028;-44
2022/01/03 09:30:11;;;;;;;15.05;3.60;;;11.50;99.90;;;;;;5048853;28;20106;-46
2022/01/03 09:32:36;;;;;;;17.17;3.90;;;11.50;99.90;;;;;;5049615;28;20024;-43
2022/01/03 09:35:03;;;;;;;21.23;4.43;;;11.50;99.90;;;;;;5049629;28;20400;-44
2022/01/03 09:37:29;;;;;;;18.58;3.80;;;11.50;99.90;;;;;;5048589;28;20044;-43
2022/01/03 09:39:57;;;;;;;16.00;3.67;;;11.50;99.90;;;;;;5049299;28;20032;-43
2022/01/03 09:42:26;;;;;;;14.35;3.60;;;11.50;99.90;;;;;;5049293;28;20060;-43
2022/01/03 09:44:53;;;;;;;16.23;3.83;;;11.50;99.90;;;;;;5048514;28;20040;-43
2022/01/03 09:47:20;;;;;;;18.77;4.30;;;11.50;99.90;;;;;;5049626;28;20400;-43
2022/01/03 09:49:47;;;;;;;15.82;3.78;;;11.50;99.90;;;;;;5048228;28;20048;-43
2022/01/03 09:52:15;;;;;;;17.98;3.70;;;11.50;99.90;;;;;;5049019;28;20495;-43
2022/01/03 09:54:41;;;;;;;18.80;3.75;;;11.50;99.90;;;;;;5049026;28;20473;-43
2022/01/03 09:57:07;;;;;;;18.60;3.75;;;11.50;99.90;;;;;;5048114;28;20021;-44
2022/01/03 09:59:34;;;;;;;21.40;4.50;;;11.50;99.90;;;;;;5046773;28;20499;-43
2022/01/03 10:02:00;;;;;;;22.13;4.78;;;11.50;99.90;;;;;;5048129;28;20021;-43
2022/01/03 10:04:26;;;;;;;18.35;3.88;;;11.50;99.90;;;;;;5046484;28;20047;-43
2022/01/03 10:06:52;;;;;;;20.05;3.97;;;11.50;99.90;;;;;;5048297;28;20060;-44
2022/01/03 10:09:22;;;;;;;21.63;3.70;;;11.50;99.90;;;;;;5049311;28;20106;-43
2022/01/03 10:11:49;;;;;;;22.33;4.45;;;11.50;99.90;;;;;;5048239;28;20025;-45
2022/01/03 10:14:15;;;;;;;17.45;4.28;;;11.50;99.90;;;;;;5049121;28;20024;-44
2022/01/03 10:16:42;;;;;;;15.48;3.47;;;11.50;99.90;;;;;;5048624;28;20171;-43
2022/01/03 10:19:08;;;;;;;21.00;4.47;;;11.60;99.90;;;;;;5048005;28;20025;-43
2022/01/03 10:21:39;;;;;;;19.23;4.53;;;11.60;99.90;;;;;;5048443;28;20067;-43
2022/01/03 10:24:07;;;;;;;19.20;4.30;;;11.60;99.90;;;;;;5048807;28;20114;-43
2022/01/03 10:26:33;;;;;;;16.48;3.75;;;11.60;99.90;;;;;;5047314;28;20091;-44
2022/01/03 10:29:19;;;;;;;16.20;3.22;;;11.70;99.90;;;;;;5048297;28;20121;-44
2022/01/03 10:31:47;;;;;;;13.15;4.65;;;11.70;99.90;;;;;;5059046;28;20091;-44
2022/01/03 10:34:15;;;;;;;20.02;4.18;;;11.70;99.90;;;;;;5048492;28;20124;-44
2022/01/03 10:36:42;;;;;;;16.88;5.20;;;11.70;99.90;;;;;;5047935;28;20068;-43
2022/01/03 10:39:15;;;;;;;16.73;4.03;;;11.70;99.90;;;;;;5047300;28;20461;-43
2022/01/03 10:41:42;;;;;;;19.73;3.90;;;11.70;99.90;;;;;;5048299;28;20040;-43
2022/01/03 10:44:09;;;;;;;21.00;4.30;;;11.70;99.90;;;;;;5048679;28;20024;-43
2022/01/03 10:46:36;;;;;;;19.65;3.72;;;11.80;99.90;;;;;;5046911;28;20055;-43
2022/01/03 10:49:11;;;;;;;18.48;4.13;;;11.80;99.90;;;;;;5047589;28;20056;-42
2022/01/03 10:51:37;;;;;;;23.65;4.93;;;11.90;99.90;;;;;;5048263;28;20537;-44
2022/01/03 10:54:08;;;;;;;20.23;3.90;;;11.90;99.90;;;;;;5047080;28;20116;-43
2022/01/03 10:56:39;;;;;;;22.80;4.78;;;12.00;99.90;;;;;;5047785;28;20033;-44
2022/01/03 10:59:22;;;;;;;20.85;5.13;;;12.10;99.90;;;;;;5047517;28;20021;-43
2022/01/03 11:02:12;;;;;;;19.80;4.63;;;12.10;99.90;;;;;;5048020;28;20156;-43
2022/01/03 11:13:06;;;;;;;17.73;3.65;;;12.20;99.90;;;;;;5047913;28;20071;-43
2022/01/03 11:15:32;;;;;;;20.35;4.60;;;12.20;99.90;;;;;;5047121;28;20041;-43
2022/01/03 11:18:12;;;;;;;18.55;4.15;;;12.20;99.90;;;;;;5047345;28;20021;-43
2022/01/03 11:20:38;;;;;;;14.55;3.95;;;12.20;99.90;;;;;;5048092;28;20033;-42
2022/01/03 11:23:04;;;;;;;19.83;4.95;;;12.20;99.90;;;;;;5046820;28;20015;-43
2022/01/03 11:25:32;;;;;;;13.95;3.65;;;12.20;99.90;;;;;;5046979;28;20116;-43
2022/01/03 11:27:58;;;;;;;17.15;3.67;;;12.20;99.90;;;;;;5047489;28;20029;-43
2022/01/03 11:30:25;;;;;;;16.67;4.07;;;12.30;99.90;;;;;;5046666;28;20021;-44
2022/01/03 11:32:51;;;;;;;15.25;3.92;;;12.30;99.90;;;;;;5047335;28;20104;-44
2022/01/03 11:35:17;;;;;;;15.10;3.47;;;12.40;99.90;;;;;;5047136;28;20119;-44
2022/01/03 11:37:46;;;;;;;21.27;4.22;;;12.50;99.90;;;;;;5047014;28;20048;-44
2022/01/03 11:40:14;;;;;;;17.27;3.60;;;12.50;99.90;;;;;;5046883;28;20025;-43
2022/01/03 11:42:41;;;;;;;13.43;3.30;;;12.50;99.90;;;;;;5046525;28;20037;-43
2022/01/03 11:45:07;;;;;;;15.38;3.20;;;12.50;99.90;;;;;;5046006;28;20782;-44
2022/01/03 11:47:34;;;;;;;18.70;3.85;;;12.50;99.90;;;;;;5047167;28;20123;-43
2022/01/03 11:50:00;;;;;;;15.32;3.65;;;12.40;99.90;;;;;;5046530;28;20048;-43
2022/01/03 11:52:27;;;;;;;16.58;3.53;;;12.40;99.90;;;;;;5047099;28;20506;-43
2022/01/03 11:54:53;;;;;;;15.00;3.03;;;12.40;99.90;;;;;;5047399;28;20021;-43
2022/01/03 12:05:52;;;;;;;14.82;3.50;;;12.20;99.90;;;;;;5044211;28;20152;-43
2022/01/03 12:08:29;;;;;;;11.75;2.90;;;12.10;99.90;;;;;;5047408;28;20380;-44
2022/01/03 12:10:55;;;;;;;12.45;3.33;;;12.10;99.90;;;;;;5045287;28;20036;-44
2022/01/03 12:13:49;;;;;;;13.18;3.00;;;12.10;99.90;;;;;;5046655;28;20021;-43
2022/01/03 12:16:15;;;;;;;11.23;2.75;;;12.20;99.90;;;;;;5048946;28;20028;-43
2022/01/03 12:19:01;;;;;;;17.23;3.28;;;12.20;99.90;;;;;;5045802;28;20436;-44
2022/01/03 12:21:48;;;;;;;11.13;3.47;;;12.20;99.90;;;;;;5045005;28;20025;-43
2022/01/03 12:24:26;;;;;;;16.27;3.13;;;12.30;99.90;;;;;;5046054;28;20051;-43
2022/01/03 12:27:25;;;;;;;15.65;3.42;;;12.30;99.90;;;;;;5045712;28;20028;-43
2022/01/03 12:29:54;;;;;;;12.57;3.08;;;12.40;99.90;;;;;;5033742;28;20037;-43
2022/01/03 12:32:37;;;;;;;18.67;3.20;;;12.40;99.90;;;;;;5045180;28;20663;-44
2022/01/03 12:35:12;;;;;;;17.20;3.70;;;12.50;99.90;;;;;;5046030;28;20052;-43
2022/01/03 12:38:10;;;;;;;16.08;3.75;;;12.50;99.90;;;;;;5046090;28;20506;-43
2022/01/03 12:40:45;;;;;;;13.80;2.97;;;12.40;99.90;;;;;;5060231;28;20025;-43
2022/01/03 12:43:12;;;;;;;17.42;3.50;;;12.40;99.90;;;;;;5036456;28;20032;-43
2022/01/03 12:45:44;;;;;;;17.50;3.63;;;12.40;99.90;;;;;;5045593;28;20017;-43
2022/01/03 12:48:15;;;;;;;14.75;3.40;;;12.30;99.90;;;;;;5046303;28;20098;-43
2022/01/03 12:50:52;;;;;;;11.93;3.03;;;12.30;99.90;;;;;;5046288;28;20068;-43
2022/01/03 12:53:27;;;;;;;12.38;3.13;;;12.30;99.90;;;;;;5045772;28;20499;-43
2022/01/03 12:56:17;;;;;;;17.05;3.83;;;12.30;99.90;;;;;;5045898;28;20056;-43
2022/01/03 12:58:44;;;;;;;14.52;3.00;;;12.30;99.90;;;;;;5035866;28;20025;-43
2022/01/03 13:01:14;;;;;;;14.45;2.85;;;12.20;99.90;;;;;;5045283;28;20654;-44
2022/01/03 13:03:39;;;;;;;10.18;2.75;;;12.20;99.90;;;;;;5046483;28;20059;-44
2022/01/03 13:06:21;;;;;;;14.93;2.85;;;12.10;99.90;;;;;;5046069;28;20762;-43
2022/01/03 13:08:56;;;;;;;14.13;3.20;;;12.10;99.90;;;;;;5044696;28;20045;-44
2022/01/03 13:11:28;;;;;;;12.23;3.00;;;12.00;99.90;;;;;;5046669;28;20108;-44
2022/01/03 13:13:57;;;;;;;10.27;2.63;;;12.00;99.90;;;;;;5045642;28;20032;-42